createdAt,value
2023-03-31T00:02:41.851Z,86.47
2023-03-31T00:08:02.309Z,86.15
2023-03-31T00:13:23.159Z,86.18
2023-03-31T00:18:47.816Z,86.25
2023-03-31T00:24:11.398Z,85.70
2023-03-31T00:29:33.618Z,85.66
2023-03-31T00:34:54.184Z,85.29
2023-03-31T00:40:15.290Z,85.16
2023-03-31T00:45:36.481Z,84.85
2023-03-31T00:50:59.586Z,84.73
2023-03-31T00:56:20.805Z,84.96
2023-03-31T01:01:46.266Z,85.12
2023-03-31T01:07:17.181Z,85.16
2023-03-31T01:12:41.358Z,85.14
2023-03-31T01:18:03.698Z,85.00
2023-03-31T01:23:58.070Z,85.35
2023-03-31T01:29:36.851Z,85.32
2023-03-31T01:35:07.030Z,84.99
2023-03-31T01:40:58.105Z,85.06
2023-03-31T01:46:25.252Z,84.96
2023-03-31T01:52:04.027Z,84.96
2023-03-31T01:57:32.652Z,84.89
2023-03-31T02:03:05.468Z,85.17
2023-03-31T02:08:41.698Z,85.00
2023-03-31T02:14:05.614Z,85.07
2023-03-31T02:19:31.637Z,85.00
2023-03-31T02:24:54.671Z,84.95
2023-03-31T02:30:15.331Z,84.68
2023-03-31T02:35:36.778Z,84.81
2023-03-31T02:40:58.087Z,84.55
2023-03-31T02:46:18.580Z,84.59
2023-03-31T02:51:56.340Z,84.83
2023-03-31T02:57:34.077Z,84.55
2023-03-31T03:03:21.403Z,84.65
2023-03-31T03:09:04.801Z,84.52
2023-03-31T03:14:38.866Z,84.76
2023-03-31T03:20:02.145Z,84.37
2023-03-31T03:25:24.347Z,84.28
2023-03-31T03:30:45.088Z,84.00
2023-03-31T03:36:07.264Z,84.42
2023-03-31T03:41:27.838Z,84.07
2023-03-31T03:46:48.379Z,83.93
2023-03-31T03:52:09.216Z,84.04
2023-03-31T03:57:29.781Z,84.15
2023-03-31T04:02:51.231Z,84.17
2023-03-31T04:08:12.018Z,84.08
2023-03-31T04:13:33.036Z,84.16
2023-03-31T04:18:56.835Z,84.06
2023-03-31T04:24:21.970Z,83.98
2023-03-31T04:29:42.656Z,83.84
2023-03-31T04:35:03.477Z,84.31
2023-03-31T04:40:24.903Z,84.45
2023-03-31T04:45:45.814Z,84.67
2023-03-31T04:51:07.191Z,84.71
2023-03-31T04:56:27.739Z,84.73
2023-03-31T05:01:48.334Z,84.64
2023-03-31T05:07:08.961Z,84.42
2023-03-31T05:12:29.787Z,84.00
2023-03-31T05:17:52.426Z,83.94
2023-03-31T05:23:13.393Z,83.97
2023-03-31T05:28:35.755Z,84.00
2023-03-31T05:33:56.513Z,84.32
2023-03-31T05:39:17.122Z,84.21
2023-03-31T05:44:37.975Z,84.09
2023-03-31T05:49:58.746Z,83.76
2023-03-31T05:55:19.496Z,84.11
2023-03-31T06:00:40.129Z,83.84
2023-03-31T06:06:01.980Z,84.02
2023-03-31T06:11:23.155Z,84.40
2023-03-31T06:16:43.666Z,84.45
2023-03-31T06:22:04.342Z,84.30
2023-03-31T06:27:25.013Z,84.00
2023-03-31T06:32:45.953Z,83.91
2023-03-31T06:38:07.059Z,83.94
2023-03-31T06:43:27.580Z,83.66
2023-03-31T06:48:48.254Z,83.26
2023-03-31T06:54:08.920Z,82.97
2023-03-31T06:59:29.374Z,83.10
2023-03-31T07:04:50.066Z,82.73
2023-03-31T07:10:10.963Z,82.56
2023-03-31T07:15:31.941Z,82.66
2023-03-31T07:20:53.226Z,82.57
2023-03-31T07:26:13.690Z,82.37
2023-03-31T07:31:34.734Z,82.32
2023-03-31T07:36:56.283Z,82.56
2023-03-31T07:42:17.111Z,82.63
2023-03-31T07:47:39.281Z,82.61
2023-03-31T07:52:59.932Z,82.72
2023-03-31T07:58:21.015Z,82.65
2023-03-31T08:03:42.050Z,82.18
2023-03-31T08:09:03.854Z,82.12
2023-03-31T08:14:40.063Z,81.95
2023-03-31T08:20:06.987Z,81.40
2023-03-31T08:25:28.806Z,81.01
2023-03-31T08:30:49.425Z,81.13
2023-03-31T08:36:11.048Z,81.31
2023-03-31T08:41:34.720Z,81.10
2023-03-31T08:46:57.826Z,81.76
2023-03-31T08:52:34.682Z,81.86
2023-03-31T08:58:17.765Z,81.75
2023-03-31T09:04:02.209Z,82.15
2023-03-31T09:09:38.979Z,82.55
2023-03-31T09:15:26.003Z,82.62
2023-03-31T09:20:51.611Z,82.06
2023-03-31T09:26:25.199Z,82.42
2023-03-31T09:31:47.211Z,82.31
2023-03-31T09:37:11.199Z,82.23
2023-03-31T09:42:33.430Z,82.74
2023-03-31T09:47:57.669Z,82.89
2023-03-31T09:53:27.464Z,82.97
2023-03-31T09:58:47.888Z,82.19
2023-03-31T10:04:09.185Z,81.59
2023-03-31T10:09:34.344Z,81.59
2023-03-31T10:15:11.937Z,81.94
2023-03-31T10:20:37.259Z,81.34
2023-03-31T10:26:00.047Z,80.66
2023-03-31T10:31:35.597Z,79.94
2023-03-31T10:36:56.441Z,79.82
2023-03-31T10:42:24.799Z,79.73
2023-03-31T10:47:49.953Z,79.39
2023-03-31T10:53:13.891Z,78.76
2023-03-31T10:59:05.958Z,79.15
2023-03-31T11:04:51.432Z,79.51
2023-03-31T11:10:26.022Z,79.42
2023-03-31T11:15:49.274Z,79.81
2023-03-31T11:21:20.396Z,80.37
2023-03-31T11:26:52.134Z,81.03
2023-03-31T11:32:39.934Z,81.27
2023-03-31T11:38:21.752Z,80.64
2023-03-31T11:43:48.632Z,80.29
2023-03-31T11:49:17.882Z,80.15
2023-03-31T11:54:57.879Z,80.32
2023-03-31T12:07:59.596Z,82.04
2023-03-31T12:13:20.838Z,81.70
2023-03-31T12:19:27.572Z,82.34
2023-03-31T12:24:49.195Z,81.60
2023-03-31T12:30:09.935Z,81.04
2023-03-31T12:36:00.752Z,80.38
2023-03-31T12:41:32.387Z,79.08
2023-03-31T12:46:58.634Z,78.03
2023-03-31T12:52:44.544Z,78.53
2023-03-31T12:58:37.225Z,79.88
2023-03-31T13:04:21.554Z,80.25
2023-03-31T13:10:16.066Z,79.75
2023-03-31T13:15:36.846Z,80.03
2023-03-31T13:26:32.749Z,79.78
2023-03-31T13:32:02.450Z,79.47
2023-03-31T13:38:17.349Z,78.90
2023-03-31T13:43:57.096Z,78.54
2023-03-31T13:49:17.404Z,78.28
2023-03-31T13:54:59.629Z,77.64
2023-03-31T14:00:57.541Z,76.37
2023-03-31T14:06:36.298Z,73.95
2023-03-31T14:12:02.188Z,73.25
2023-03-31T14:17:37.379Z,73.34
2023-03-31T14:23:14.385Z,72.73
2023-03-31T14:29:02.077Z,71.87
2023-03-31T14:35:04.696Z,73.81
2023-03-31T14:40:25.792Z,75.44
2023-03-31T14:45:46.761Z,75.27
2023-03-31T14:51:10.124Z,75.09
2023-03-31T14:56:41.578Z,73.81
2023-03-31T15:02:04.590Z,72.28
2023-03-31T15:07:25.481Z,72.04
2023-03-31T15:12:48.819Z,70.06
2023-03-31T15:18:13.939Z,69.63
2023-03-31T15:23:35.477Z,69.36
2023-03-31T15:29:06.105Z,70.91
2023-03-31T15:34:33.164Z,72.68
2023-03-31T15:39:58.582Z,73.75
2023-03-31T15:45:31.451Z,74.45
2023-03-31T15:50:53.266Z,74.63
2023-03-31T15:56:34.776Z,75.27
2023-03-31T16:01:59.933Z,75.50
2023-03-31T16:07:22.738Z,75.65
2023-03-31T16:12:54.448Z,75.62
2023-03-31T16:18:28.233Z,75.78
2023-03-31T16:23:54.178Z,76.12
2023-03-31T16:29:23.673Z,76.29
2023-03-31T16:34:58.047Z,76.37
2023-03-31T16:40:18.907Z,76.50
2023-03-31T16:45:39.984Z,76.52
2023-03-31T16:51:01.541Z,76.80
2023-03-31T16:56:23.853Z,76.80
2023-03-31T17:01:45.732Z,76.58
2023-03-31T17:07:06.369Z,76.82
2023-03-31T17:12:26.577Z,77.05
2023-03-31T17:17:48.243Z,76.79
2023-03-31T17:23:08.928Z,77.04
2023-03-31T17:28:30.898Z,77.23
2023-03-31T17:33:51.667Z,77.38
2023-03-31T17:39:12.163Z,77.37
2023-03-31T17:44:32.722Z,77.86
2023-03-31T17:49:53.476Z,77.67
2023-03-31T17:55:14.888Z,77.64
2023-03-31T18:00:35.663Z,77.62
2023-03-31T18:05:56.700Z,77.79
2023-03-31T18:11:17.279Z,77.86
2023-03-31T18:16:38.363Z,77.83
2023-03-31T18:21:58.805Z,78.04
2023-03-31T18:27:19.703Z,78.14
2023-03-31T18:32:40.300Z,78.02
2023-03-31T18:38:01.046Z,77.84
2023-03-31T18:43:22.432Z,78.14
2023-03-31T18:48:42.877Z,78.73
2023-03-31T18:54:04.052Z,78.56
2023-03-31T18:59:25.077Z,78.75
2023-03-31T19:04:46.966Z,78.83
2023-03-31T19:10:08.145Z,79.04
2023-03-31T19:15:29.163Z,79.20
2023-03-31T19:20:50.168Z,79.22
2023-03-31T19:26:15.596Z,79.16
2023-03-31T19:31:38.676Z,78.90
2023-03-31T19:36:59.695Z,79.23
2023-03-31T19:42:20.311Z,79.39
2023-03-31T19:47:41.033Z,79.49
2023-03-31T19:53:01.968Z,79.29
2023-03-31T19:58:22.555Z,79.45
2023-03-31T20:03:43.351Z,79.54
2023-03-31T20:09:06.348Z,79.40
2023-03-31T20:14:28.301Z,79.46
2023-03-31T20:19:48.895Z,79.68
2023-03-31T20:25:09.883Z,79.78
2023-03-31T20:30:30.536Z,79.82
2023-03-31T20:36:21.633Z,79.97
2023-03-31T20:41:43.354Z,79.82
2023-03-31T20:47:04.299Z,79.92
2023-03-31T20:52:25.398Z,79.82
2023-03-31T20:57:46.530Z,79.98
2023-03-31T21:03:08.141Z,80.05
2023-03-31T21:08:29.098Z,80.22
2023-03-31T21:13:50.398Z,80.14
2023-03-31T21:19:11.326Z,80.03
2023-03-31T21:24:32.132Z,80.21
2023-03-31T21:29:53.009Z,80.32
2023-03-31T21:35:13.880Z,80.49
2023-03-31T21:40:38.787Z,80.48
2023-03-31T21:45:59.898Z,80.51
2023-03-31T21:51:22.165Z,80.49
2023-03-31T21:56:43.089Z,80.51
2023-03-31T22:02:04.611Z,80.58
2023-03-31T22:07:26.179Z,80.60
2023-03-31T22:12:46.653Z,80.70
2023-03-31T22:18:07.373Z,80.79
2023-03-31T22:23:28.328Z,80.54
2023-03-31T22:28:49.635Z,80.57
2023-03-31T22:34:10.446Z,80.82
2023-03-31T22:39:31.053Z,80.93
2023-03-31T22:44:51.894Z,81.06
2023-03-31T22:50:12.307Z,80.92
2023-03-31T22:55:33.104Z,80.87
2023-03-31T23:00:58.579Z,80.96
2023-03-31T23:06:19.536Z,80.99
2023-03-31T23:11:39.991Z,81.08
2023-03-31T23:17:00.719Z,81.48
2023-03-31T23:22:21.627Z,81.24
2023-03-31T23:27:42.331Z,81.52
2023-03-31T23:33:02.989Z,81.62
2023-03-31T23:38:23.507Z,81.82
2023-03-31T23:43:44.983Z,82.19
2023-03-31T23:49:07.716Z,82.45
2023-03-31T23:54:28.830Z,82.49
2023-03-31T23:59:50.469Z,82.56
